createdAt,value
2023-04-03T00:00:59.540Z,16.36
2023-04-03T00:03:26.521Z,16.31
2023-04-03T00:05:53.479Z,16.31
2023-04-03T00:08:21.153Z,16.29
2023-04-03T00:10:48.228Z,16.28
2023-04-03T00:13:15.903Z,16.26
2023-04-03T00:15:43.359Z,16.22
2023-04-03T00:18:10.821Z,16.22
2023-04-03T00:20:38.334Z,16.21
2023-04-03T00:23:05.645Z,16.16
2023-04-03T00:25:32.668Z,16.18
2023-04-03T00:27:59.843Z,16.13
2023-04-03T00:30:27.226Z,16.10
2023-04-03T00:32:54.278Z,16.06
2023-04-03T00:35:23.174Z,16.04
2023-04-03T00:37:53.969Z,16.04
2023-04-03T00:40:22.205Z,16.01
2023-04-03T00:42:50.666Z,16.00
2023-04-03T00:45:39.174Z,15.99
2023-04-03T00:48:11.397Z,15.97
2023-04-03T00:50:42.376Z,15.97
2023-04-03T00:53:15.885Z,15.94
2023-04-03T00:55:43.393Z,15.93
2023-04-03T00:58:12.207Z,15.92
2023-04-03T01:00:44.638Z,15.88
2023-04-03T01:03:11.569Z,15.87
2023-04-03T01:05:39.089Z,15.85
2023-04-03T01:08:06.550Z,15.84
2023-04-03T01:10:33.527Z,15.84
2023-04-03T01:13:01.786Z,15.80
2023-04-03T01:15:34.221Z,15.79
2023-04-03T01:18:02.089Z,15.78
2023-04-03T01:20:38.483Z,15.75
2023-04-03T01:23:12.115Z,15.74
2023-04-03T01:25:52.297Z,15.78
2023-04-03T01:28:32.306Z,15.77
2023-04-03T01:31:20.635Z,15.75
2023-04-03T01:33:48.114Z,15.75
2023-04-03T01:36:18.675Z,15.74
2023-04-03T01:38:45.695Z,15.74
2023-04-03T01:41:12.666Z,15.73
2023-04-03T01:43:39.668Z,15.74
2023-04-03T01:46:06.762Z,15.73
2023-04-03T01:48:33.900Z,15.73
2023-04-03T01:51:00.828Z,15.72
2023-04-03T01:53:28.015Z,15.73
2023-04-03T01:55:54.952Z,15.74
2023-04-03T01:58:22.012Z,15.74
2023-04-03T02:00:49.625Z,15.74
2023-04-03T02:03:16.756Z,15.74
2023-04-03T02:05:43.745Z,15.75
2023-04-03T02:08:10.690Z,15.74
2023-04-03T02:10:37.866Z,15.73
2023-04-03T02:13:04.959Z,15.73
2023-04-03T02:15:31.978Z,15.73
2023-04-03T02:17:58.937Z,15.75
2023-04-03T02:20:25.960Z,15.74
2023-04-03T02:22:52.870Z,15.75
2023-04-03T02:25:19.852Z,15.75
2023-04-03T02:27:46.764Z,15.75
2023-04-03T02:30:15.940Z,15.76
2023-04-03T02:32:43.862Z,15.78
2023-04-03T02:35:11.984Z,15.78
2023-04-03T02:37:39.012Z,15.79
2023-04-03T02:40:07.395Z,15.77
2023-04-03T02:42:34.516Z,15.78
2023-04-03T02:45:04.843Z,15.77
2023-04-03T02:47:31.880Z,15.79
2023-04-03T02:49:58.891Z,15.79
2023-04-03T02:52:26.168Z,15.81
2023-04-03T02:54:53.127Z,15.82
2023-04-03T02:57:21.149Z,15.80
2023-04-03T02:59:48.154Z,15.80
2023-04-03T03:02:15.060Z,15.79
2023-04-03T03:04:42.091Z,15.80
2023-04-03T03:07:09.062Z,15.78
2023-04-03T03:09:36.019Z,15.77
2023-04-03T03:12:02.986Z,15.77
2023-04-03T03:14:29.946Z,15.75
2023-04-03T03:16:56.849Z,15.77
2023-04-03T03:19:23.801Z,15.78
2023-04-03T03:21:51.513Z,15.79
2023-04-03T03:24:18.578Z,15.79
2023-04-03T03:26:45.820Z,15.78
2023-04-03T03:29:12.740Z,15.80
2023-04-03T03:31:39.758Z,15.80
2023-04-03T03:34:06.832Z,15.81
2023-04-03T03:36:33.798Z,15.82
2023-04-03T03:39:00.766Z,15.82
2023-04-03T03:41:27.745Z,15.82
2023-04-03T03:43:54.715Z,15.84
2023-04-03T03:46:21.755Z,15.85
2023-04-03T03:48:48.792Z,15.84
2023-04-03T03:51:15.731Z,15.86
2023-04-03T03:53:42.716Z,15.86
2023-04-03T03:56:09.747Z,15.86
2023-04-03T03:58:37.002Z,15.88
2023-04-03T04:01:07.041Z,15.89
2023-04-03T04:03:34.390Z,15.88
2023-04-03T04:06:01.554Z,15.88
2023-04-03T04:08:28.721Z,15.89
2023-04-03T04:10:55.999Z,15.89
2023-04-03T04:13:23.051Z,15.88
2023-04-03T04:15:50.107Z,15.90
2023-04-03T04:18:17.160Z,15.89
2023-04-03T04:20:46.693Z,15.89
2023-04-03T04:23:13.640Z,15.90
2023-04-03T04:25:40.589Z,15.90
2023-04-03T04:28:07.767Z,15.89
2023-04-03T04:30:34.693Z,15.90
2023-04-03T04:33:02.330Z,15.91
2023-04-03T04:35:29.384Z,15.92
2023-04-03T04:37:56.580Z,15.92
2023-04-03T04:40:23.652Z,15.92
2023-04-03T04:42:50.644Z,15.91
2023-04-03T04:45:17.895Z,15.93
2023-04-03T04:47:45.107Z,15.93
2023-04-03T04:50:12.885Z,15.92
2023-04-03T04:52:40.400Z,15.92
2023-04-03T04:55:07.834Z,15.91
2023-04-03T04:57:34.982Z,15.91
2023-04-03T05:00:02.093Z,15.91
2023-04-03T05:02:29.087Z,15.91
2023-04-03T05:04:56.287Z,15.92
2023-04-03T05:07:23.902Z,15.92
2023-04-03T05:09:50.827Z,15.92
2023-04-03T05:12:18.439Z,15.92
2023-04-03T05:14:45.370Z,15.92
2023-04-03T05:17:12.289Z,15.92
2023-04-03T05:19:39.397Z,15.92
2023-04-03T05:22:06.539Z,15.92
2023-04-03T05:24:33.463Z,15.92
2023-04-03T05:27:00.675Z,15.92
2023-04-03T05:29:27.726Z,15.93
2023-04-03T05:31:54.772Z,15.94
2023-04-03T05:34:21.865Z,15.95
2023-04-03T05:36:48.841Z,15.95
2023-04-03T05:39:15.988Z,15.97
2023-04-03T05:41:42.911Z,15.98
2023-04-03T05:44:09.916Z,15.97
2023-04-03T05:46:37.175Z,15.97
2023-04-03T05:49:04.762Z,15.96
2023-04-03T05:51:38.537Z,15.95
2023-04-03T05:54:20.308Z,15.99
2023-04-03T05:56:47.440Z,16.00
2023-04-03T05:59:14.459Z,16.07
2023-04-03T06:01:41.916Z,16.11
2023-04-03T06:04:10.421Z,16.16
2023-04-03T06:06:54.247Z,16.19
2023-04-03T06:09:23.474Z,16.22
2023-04-03T06:11:50.657Z,16.26
2023-04-03T06:14:17.756Z,16.28
2023-04-03T06:16:45.073Z,16.29
2023-04-03T06:19:13.464Z,16.31
2023-04-03T06:21:40.944Z,16.32
2023-04-03T06:24:08.709Z,16.34
2023-04-03T06:26:36.051Z,16.35
2023-04-03T06:29:03.734Z,16.38
2023-04-03T06:31:31.407Z,16.39
2023-04-03T06:33:58.525Z,16.39
2023-04-03T06:36:25.598Z,16.39
2023-04-03T06:38:52.845Z,16.29
2023-04-03T06:41:19.861Z,16.15
2023-04-03T06:43:47.205Z,16.03
2023-04-03T06:46:19.457Z,15.93
2023-04-03T06:48:46.773Z,15.82
2023-04-03T06:51:21.167Z,15.86
2023-04-03T06:53:53.066Z,15.84
2023-04-03T06:56:21.088Z,15.93
2023-04-03T06:58:48.442Z,15.96
2023-04-03T07:01:17.950Z,16.09
2023-04-03T07:03:45.090Z,16.18
2023-04-03T07:06:17.436Z,16.24
2023-04-03T07:08:45.529Z,16.30
2023-04-03T07:11:13.988Z,16.31
2023-04-03T07:13:41.444Z,16.34
2023-04-03T07:16:09.975Z,16.27
2023-04-03T07:18:37.560Z,15.98
2023-04-03T07:21:06.153Z,15.81
2023-04-03T07:23:34.127Z,15.65
2023-04-03T07:26:01.279Z,15.36
2023-04-03T07:28:28.752Z,15.42
2023-04-03T07:31:06.087Z,15.59
2023-04-03T07:33:33.437Z,15.79
2023-04-03T07:36:01.755Z,15.83
2023-04-03T07:38:29.261Z,15.33
2023-04-03T07:40:57.402Z,15.45
2023-04-03T07:43:26.265Z,15.57
2023-04-03T07:45:55.292Z,15.76
2023-04-03T07:48:24.326Z,15.96
2023-04-03T07:50:51.879Z,16.09
2023-04-03T07:53:19.753Z,16.22
2023-04-03T07:55:53.062Z,16.31
2023-04-03T07:58:20.125Z,16.41
2023-04-03T08:00:48.300Z,16.48
2023-04-03T08:03:18.015Z,16.57
2023-04-03T08:05:47.509Z,16.66
2023-04-03T08:08:21.457Z,16.73
2023-04-03T08:10:53.455Z,16.83
2023-04-03T08:13:21.154Z,16.92
2023-04-03T08:15:48.765Z,17.01
2023-04-03T08:18:17.430Z,16.86
2023-04-03T08:20:44.889Z,16.82
2023-04-03T08:23:12.443Z,16.73
2023-04-03T08:25:43.431Z,16.75
2023-04-03T08:28:12.288Z,16.51
2023-04-03T08:30:43.877Z,16.42
2023-04-03T08:33:11.907Z,16.06
2023-04-03T08:35:43.658Z,16.02
2023-04-03T08:38:11.881Z,16.08
2023-04-03T08:40:39.731Z,15.84
2023-04-03T08:43:32.824Z,15.62
2023-04-03T08:46:06.009Z,15.43
2023-04-03T08:48:38.346Z,15.43
2023-04-03T08:51:16.504Z,15.62
2023-04-03T08:53:58.034Z,15.94
2023-04-03T08:56:27.054Z,16.09
2023-04-03T08:58:58.534Z,16.24
2023-04-03T09:01:46.156Z,16.34
2023-04-03T09:04:21.046Z,16.44
2023-04-03T09:06:55.826Z,16.51
2023-04-03T09:09:43.682Z,16.57
2023-04-03T09:12:25.584Z,16.62
2023-04-03T09:15:01.321Z,16.66
2023-04-03T09:17:40.393Z,16.70
2023-04-03T09:20:32.153Z,16.74
2023-04-03T09:22:59.765Z,16.81
2023-04-03T09:25:34.614Z,16.84
2023-04-03T09:28:03.227Z,16.89
2023-04-03T09:30:31.198Z,16.90
2023-04-03T09:32:59.183Z,16.91
2023-04-03T09:35:47.569Z,16.93
2023-04-03T09:38:22.504Z,17.03
2023-04-03T09:40:53.037Z,17.06
2023-04-03T09:43:28.167Z,17.09
2023-04-03T09:45:56.083Z,17.10
2023-04-03T09:48:26.086Z,17.16
2023-04-03T09:50:57.977Z,17.12
2023-04-03T09:53:31.187Z,17.14
2023-04-03T09:55:59.827Z,17.27
2023-04-03T09:58:42.728Z,17.33
2023-04-03T10:01:26.511Z,17.27
2023-04-03T10:04:12.405Z,17.23
2023-04-03T10:06:52.546Z,17.30
2023-04-03T10:09:28.784Z,17.40
2023-04-03T10:12:13.557Z,17.47
2023-04-03T10:14:58.390Z,17.53
2023-04-03T10:17:47.069Z,17.60
2023-04-03T10:20:38.046Z,17.62
2023-04-03T10:23:22.770Z,17.63
2023-04-03T10:26:14.748Z,17.46
2023-04-03T10:28:58.537Z,17.47
2023-04-03T10:31:52.238Z,17.58
2023-04-03T10:34:40.038Z,17.58
2023-04-03T10:37:18.988Z,17.37
2023-04-03T10:40:13.930Z,17.40
2023-04-03T10:42:48.704Z,17.45
2023-04-03T10:45:29.400Z,17.57
2023-04-03T10:48:31.704Z,17.55
2023-04-03T10:51:43.187Z,17.54
2023-04-03T10:54:17.644Z,17.62
2023-04-03T10:57:04.925Z,17.66
2023-04-03T10:59:43.800Z,17.74
2023-04-03T11:02:26.422Z,17.83
2023-04-03T11:05:02.056Z,17.89
2023-04-03T11:07:37.181Z,17.91
2023-04-03T11:10:15.989Z,17.96
2023-04-03T11:12:46.462Z,18.00
2023-04-03T11:15:22.703Z,18.02
2023-04-03T11:17:56.672Z,18.07
2023-04-03T11:20:35.632Z,18.10
2023-04-03T11:23:07.179Z,18.13
2023-04-03T11:25:38.951Z,18.17
2023-04-03T11:28:13.918Z,18.21
2023-04-03T11:31:01.761Z,18.28
2023-04-03T11:33:52.591Z,18.30
2023-04-03T11:36:26.063Z,18.30
2023-04-03T11:39:02.185Z,18.35
2023-04-03T11:41:31.981Z,18.38
2023-04-03T11:44:25.050Z,18.41
2023-04-03T11:46:59.501Z,18.44
2023-04-03T11:50:14.485Z,18.46
2023-04-03T11:52:44.145Z,18.50
2023-04-03T11:55:23.825Z,18.51
2023-04-03T11:58:00.126Z,18.48
2023-04-03T12:00:48.556Z,18.50
2023-04-03T12:03:33.699Z,18.54
2023-04-03T12:06:13.039Z,18.57
2023-04-03T12:08:51.953Z,18.58
2023-04-03T12:11:33.047Z,18.60
2023-04-03T12:13:59.968Z,18.38
2023-04-03T12:16:43.707Z,18.31
2023-04-03T12:19:17.314Z,18.25
2023-04-03T12:21:50.265Z,18.06
2023-04-03T12:24:17.367Z,18.10
2023-04-03T12:26:53.121Z,18.10
2023-04-03T12:29:23.120Z,18.01
2023-04-03T12:32:10.509Z,18.06
2023-04-03T12:34:56.300Z,18.05
2023-04-03T12:37:50.281Z,18.00
2023-04-03T12:40:37.465Z,17.94
2023-04-03T12:43:15.226Z,17.86
2023-04-03T12:46:13.369Z,17.80
2023-04-03T12:48:46.903Z,17.78
2023-04-03T12:51:22.049Z,17.76
2023-04-03T12:53:51.265Z,17.69
2023-04-03T12:56:33.631Z,17.69
2023-04-03T12:59:26.715Z,17.66
2023-04-03T13:01:58.778Z,17.78
2023-04-03T13:04:26.855Z,17.71
2023-04-03T13:06:54.175Z,17.64
2023-04-03T13:09:24.145Z,17.65
2023-04-03T13:11:57.601Z,17.76
2023-04-03T13:14:26.735Z,17.81
2023-04-03T13:16:58.726Z,17.71
2023-04-03T13:19:29.259Z,17.70
2023-04-03T13:22:00.948Z,17.69
2023-04-03T13:24:30.672Z,17.58
2023-04-03T13:26:58.107Z,17.45
2023-04-03T13:29:37.531Z,17.43
2023-04-03T13:32:07.783Z,17.42
2023-04-03T13:34:41.988Z,17.40
2023-04-03T13:37:22.373Z,17.36
2023-04-03T13:40:19.321Z,17.36
2023-04-03T13:42:48.623Z,17.31
2023-04-03T13:45:29.977Z,17.31
2023-04-03T13:48:23.884Z,17.36
2023-04-03T13:51:07.829Z,17.26
2023-04-03T13:53:42.854Z,17.21
2023-04-03T13:56:20.379Z,17.13
2023-04-03T13:59:22.224Z,17.09
2023-04-03T14:02:03.872Z,17.10
2023-04-03T14:04:46.091Z,17.02
2023-04-03T14:07:13.816Z,17.00
2023-04-03T14:09:42.312Z,16.98
2023-04-03T14:12:30.094Z,16.97
2023-04-03T14:15:00.162Z,16.97
2023-04-03T14:17:29.270Z,16.93
2023-04-03T14:19:58.300Z,16.88
2023-04-03T14:22:30.920Z,16.81
2023-04-03T14:24:59.276Z,16.80
2023-04-03T14:27:42.471Z,16.75
2023-04-03T14:30:18.666Z,16.77
2023-04-03T14:32:46.423Z,16.70
2023-04-03T14:35:14.862Z,16.62
2023-04-03T14:37:42.868Z,16.60
2023-04-03T14:40:15.125Z,16.56
2023-04-03T14:42:42.804Z,16.49
2023-04-03T14:45:14.680Z,16.47
2023-04-03T14:47:50.172Z,16.44
2023-04-03T14:50:22.636Z,16.45
2023-04-03T14:52:52.926Z,16.42
2023-04-03T14:55:23.248Z,16.36
2023-04-03T14:57:50.550Z,16.33
2023-04-03T15:00:22.904Z,16.27
2023-04-03T15:02:50.682Z,16.28
2023-04-03T15:05:18.456Z,16.32
2023-04-03T15:07:54.067Z,16.31
2023-04-03T15:10:27.374Z,16.26
2023-04-03T15:12:55.649Z,16.29
2023-04-03T15:15:24.440Z,16.30
2023-04-03T15:18:00.786Z,16.30
2023-04-03T15:20:33.173Z,16.24
2023-04-03T15:23:07.516Z,16.23
2023-04-03T15:25:44.443Z,16.22
2023-04-03T15:28:30.585Z,16.28
2023-04-03T15:30:58.772Z,16.21
2023-04-03T15:33:27.142Z,16.18
2023-04-03T15:36:02.667Z,16.16
2023-04-03T15:38:35.993Z,16.12
2023-04-03T15:41:03.477Z,16.13
2023-04-03T15:43:31.255Z,16.12
2023-04-03T15:46:01.214Z,16.09
2023-04-03T15:48:31.206Z,16.10
2023-04-03T15:50:59.332Z,16.10
2023-04-03T15:53:29.497Z,16.07
2023-04-03T15:56:01.084Z,16.15
2023-04-03T15:58:29.967Z,16.12
2023-04-03T16:01:00.283Z,16.06
2023-04-03T16:03:31.792Z,16.03
2023-04-03T16:06:00.489Z,16.05
2023-04-03T16:08:38.218Z,15.98
2023-04-03T16:11:11.016Z,15.96
2023-04-03T16:13:42.487Z,15.93
2023-04-03T16:16:10.463Z,15.93
2023-04-03T16:18:38.353Z,15.91
2023-04-03T16:21:08.111Z,15.94
2023-04-03T16:23:36.187Z,15.85
2023-04-03T16:26:03.389Z,15.89
2023-04-03T16:28:30.645Z,15.83
2023-04-03T16:30:58.295Z,15.77
2023-04-03T16:33:26.179Z,15.91
2023-04-03T16:35:53.565Z,16.01
2023-04-03T16:38:21.093Z,16.16
2023-04-03T16:40:48.176Z,16.31
2023-04-03T16:43:16.186Z,16.38
2023-04-03T16:45:43.772Z,16.39
2023-04-03T16:48:11.930Z,16.37
2023-04-03T16:50:39.268Z,16.43
2023-04-03T16:53:09.562Z,16.46
2023-04-03T16:55:37.281Z,16.48
2023-04-03T16:58:04.315Z,16.51
2023-04-03T17:00:32.577Z,16.58
2023-04-03T17:02:59.790Z,16.60
2023-04-03T17:05:27.113Z,16.69
2023-04-03T17:07:54.650Z,16.70
2023-04-03T17:10:22.010Z,16.76
2023-04-03T17:12:49.068Z,16.81
2023-04-03T17:15:19.317Z,16.84
2023-04-03T17:17:46.436Z,16.89
2023-04-03T17:20:13.781Z,16.93
2023-04-03T17:22:41.052Z,16.99
2023-04-03T17:25:08.606Z,17.05
2023-04-03T17:27:35.670Z,17.11
2023-04-03T17:30:02.888Z,17.20
2023-04-03T17:32:30.173Z,17.21
2023-04-03T17:34:57.645Z,17.26
2023-04-03T17:37:24.828Z,17.34
2023-04-03T17:39:51.925Z,17.42
2023-04-03T17:42:19.664Z,17.49
2023-04-03T17:44:47.072Z,17.42
2023-04-03T17:47:14.138Z,17.38
2023-04-03T17:49:41.345Z,17.51
2023-04-03T17:52:08.382Z,17.61
2023-04-03T17:54:35.462Z,17.71
2023-04-03T17:57:05.014Z,17.79
2023-04-03T17:59:32.345Z,17.84
2023-04-03T18:01:59.536Z,17.90
2023-04-03T18:04:30.111Z,17.97
2023-04-03T18:06:57.547Z,18.02
2023-04-03T18:09:30.811Z,18.07
2023-04-03T18:11:58.816Z,18.18
2023-04-03T18:14:28.400Z,18.25
2023-04-03T18:16:57.745Z,18.29
2023-04-03T18:19:26.659Z,18.34
2023-04-03T18:22:03.297Z,18.39
2023-04-03T18:24:33.666Z,18.42
2023-04-03T18:27:05.113Z,18.45
2023-04-03T18:29:36.641Z,18.50
2023-04-03T18:32:05.279Z,18.51
2023-04-03T18:34:33.054Z,18.55
2023-04-03T18:37:00.683Z,18.55
2023-04-03T18:39:28.247Z,18.57
2023-04-03T18:41:57.920Z,18.56
2023-04-03T18:44:27.104Z,18.54
2023-04-03T18:46:57.167Z,18.50
2023-04-03T18:49:24.696Z,18.49
2023-04-03T18:51:51.994Z,18.51
2023-04-03T18:54:20.940Z,18.55
2023-04-03T18:56:48.213Z,18.56
2023-04-03T18:59:15.516Z,18.57
2023-04-03T19:01:42.707Z,18.62
2023-04-03T19:04:09.953Z,18.62
2023-04-03T19:06:38.030Z,18.69
2023-04-03T19:09:07.139Z,18.75
2023-04-03T19:11:34.684Z,18.82
2023-04-03T19:14:10.107Z,18.89
2023-04-03T19:16:41.681Z,18.98
2023-04-03T19:19:09.364Z,19.03
2023-04-03T19:21:41.737Z,19.08
2023-04-03T19:24:14.122Z,19.15
2023-04-03T19:26:43.193Z,19.18
2023-04-03T19:29:11.352Z,19.22
2023-04-03T19:31:39.412Z,19.25
2023-04-03T19:34:07.676Z,19.28
2023-04-03T19:36:37.216Z,19.29
2023-04-03T19:39:05.916Z,19.32
2023-04-03T19:41:35.721Z,19.36
2023-04-03T19:44:04.653Z,19.36
2023-04-03T19:46:32.125Z,19.39
2023-04-03T19:48:59.448Z,19.40
2023-04-03T19:51:27.142Z,19.41
2023-04-03T19:53:54.799Z,19.43
2023-04-03T19:56:22.965Z,19.43
2023-04-03T19:58:57.737Z,19.46
2023-04-03T20:01:28.441Z,19.42
2023-04-03T20:03:56.915Z,19.42
2023-04-03T20:06:26.466Z,19.41
2023-04-03T20:08:54.305Z,19.40
2023-04-03T20:11:22.001Z,19.40
2023-04-03T20:13:52.437Z,19.39
2023-04-03T20:16:26.196Z,19.40
2023-04-03T20:19:04.244Z,19.42
2023-04-03T20:21:37.766Z,19.42
2023-04-03T20:24:10.014Z,19.41
2023-04-03T20:26:42.930Z,19.41
2023-04-03T20:29:10.172Z,19.39
2023-04-03T20:31:42.686Z,19.38
2023-04-03T20:34:10.025Z,19.41
2023-04-03T20:36:38.006Z,19.41
2023-04-03T20:39:05.370Z,19.42
2023-04-03T20:41:36.006Z,19.36
2023-04-03T20:44:03.512Z,19.33
2023-04-03T20:46:49.083Z,19.28
2023-04-03T20:49:19.803Z,19.25
2023-04-03T20:51:47.230Z,19.15
2023-04-03T20:54:15.311Z,19.06
2023-04-03T20:56:47.772Z,18.98
2023-04-03T20:59:16.024Z,18.97
2023-04-03T21:01:46.405Z,18.90
2023-04-03T21:04:43.695Z,18.87
2023-04-03T21:07:48.480Z,18.77
2023-04-03T21:10:53.874Z,18.74
2023-04-03T21:14:01.472Z,18.69
2023-04-03T21:16:28.691Z,18.67
2023-04-03T21:19:23.438Z,18.64
2023-04-03T21:21:53.495Z,18.62
2023-04-03T21:24:20.973Z,18.58
2023-04-03T21:26:48.559Z,18.56
2023-04-03T21:29:16.238Z,18.54
2023-04-03T21:32:05.043Z,18.49
2023-04-03T21:34:33.076Z,18.48
2023-04-03T21:37:05.933Z,18.46
2023-04-03T21:39:33.817Z,18.42
2023-04-03T21:42:01.231Z,18.41
2023-04-03T21:44:28.893Z,18.40
2023-04-03T21:46:57.909Z,18.36
2023-04-03T21:49:26.401Z,18.34
2023-04-03T21:51:53.567Z,18.33
2023-04-03T21:54:20.989Z,18.32
2023-04-03T21:56:52.770Z,18.29
2023-04-03T21:59:20.967Z,18.25
2023-04-03T22:01:48.240Z,18.23
2023-04-03T22:04:17.109Z,18.21
2023-04-03T22:06:45.087Z,18.21
2023-04-03T22:09:12.770Z,18.18
2023-04-03T22:11:46.302Z,18.16
2023-04-03T22:14:13.407Z,18.15
2023-04-03T22:16:40.987Z,18.11
2023-04-03T22:19:08.231Z,18.09
2023-04-03T22:21:37.233Z,18.08
2023-04-03T22:24:04.915Z,18.05
2023-04-03T22:26:31.936Z,18.03
2023-04-03T22:28:59.196Z,18.03
2023-04-03T22:31:27.565Z,18.03
2023-04-03T22:33:55.365Z,18.03
2023-04-03T22:36:22.720Z,18.00
2023-04-03T22:38:49.964Z,17.97
2023-04-03T22:41:17.032Z,17.94
2023-04-03T22:43:44.149Z,17.96
2023-04-03T22:46:11.440Z,17.82
2023-04-03T22:48:41.346Z,17.70
2023-04-03T22:51:08.964Z,17.63
2023-04-03T22:53:37.773Z,17.56
2023-04-03T22:56:11.490Z,17.54
2023-04-03T22:58:39.408Z,17.46
2023-04-03T23:01:11.597Z,17.40
2023-04-03T23:03:41.747Z,17.37
2023-04-03T23:06:10.021Z,17.33
2023-04-03T23:08:41.174Z,17.28
2023-04-03T23:11:09.891Z,17.25
2023-04-03T23:13:37.120Z,17.22
2023-04-03T23:16:05.057Z,17.17
2023-04-03T23:18:33.128Z,17.14
2023-04-03T23:21:01.844Z,17.11
2023-04-03T23:23:29.379Z,17.09
2023-04-03T23:25:59.447Z,17.08
2023-04-03T23:28:27.583Z,17.04
2023-04-03T23:30:59.849Z,17.01
2023-04-03T23:33:26.884Z,16.98
2023-04-03T23:35:54.041Z,16.95
2023-04-03T23:38:21.413Z,16.92
2023-04-03T23:40:48.618Z,16.90
2023-04-03T23:43:15.980Z,16.87
2023-04-03T23:45:45.193Z,16.83
2023-04-03T23:48:12.164Z,16.82
2023-04-03T23:50:39.476Z,16.82
2023-04-03T23:53:06.854Z,16.76
2023-04-03T23:55:33.839Z,16.74
2023-04-03T23:58:00.996Z,16.71
